Terminal Aerodrome Forecast
Issued by NWS Charleston, SC

Current Version | Previous Version | Text Only | Print | Product List | Glossary On
Versions: 1 2 3 4 5 6 7 8 9 10 11 12 13
000
FTUS42 KCHS 282300
TAFSAV
TAF
KSAV 282337Z 2900/2924 25007KT P6SM VCTS SCT035CB BKN150
     FM290300 27006KT P6SM BKN080
     FM291000 30005KT P6SM SKC
     FM291600 33007KT P6SM FEW050=

USA.gov is the U.S. government's official web portal to all federal, state and local government web resources and services.